sensor_id;sensor_type;location;lat;lon;timestamp;temperature;humidity
28010;DHT22;15334;49.494;8.410;2023-04-03T00:01:23;5.40;99.90
28010;DHT22;15334;49.494;8.410;2023-04-03T00:03:53;5.40;99.90
28010;DHT22;15334;49.494;8.410;2023-04-03T00:06:21;5.40;99.90
28010;DHT22;15334;49.494;8.410;2023-04-03T00:08:49;5.40;99.90
28010;DHT22;15334;49.494;8.410;2023-04-03T00:11:18;5.40;99.90
28010;DHT22;15334;49.494;8.410;2023-04-03T00:13:47;5.40;99.90
28010;DHT22;15334;49.494;8.410;2023-04-03T00:16:15;5.40;99.90
28010;DHT22;15334;49.494;8.410;2023-04-03T00:18:43;5.40;99.90
28010;DHT22;15334;49.494;8.410;2023-04-03T00:21:13;5.40;99.90
28010;DHT22;15334;49.494;8.410;2023-04-03T00:23:42;5.40;99.90
28010;DHT22;15334;49.494;8.410;2023-04-03T00:26:10;5.40;99.90
28010;DHT22;15334;49.494;8.410;2023-04-03T00:28:38;5.30;99.90
28010;DHT22;15334;49.494;8.410;2023-04-03T00:31:06;5.40;99.90
28010;DHT22;15334;49.494;8.410;2023-04-03T00:33:34;5.30;99.90
28010;DHT22;15334;49.494;8.410;2023-04-03T00:36:06;5.40;99.90
28010;DHT22;15334;49.494;8.410;2023-04-03T00:38:36;5.30;99.90
28010;DHT22;15334;49.494;8.410;2023-04-03T00:41:04;5.40;99.90
28010;DHT22;15334;49.494;8.410;2023-04-03T00:43:32;5.40;99.90
28010;DHT22;15334;49.494;8.410;2023-04-03T00:46:00;5.30;99.90
28010;DHT22;15334;49.494;8.410;2023-04-03T00:48:31;5.30;99.90
28010;DHT22;15334;49.494;8.410;2023-04-03T00:51:00;5.30;99.90
28010;DHT22;15334;49.494;8.410;2023-04-03T00:53:33;5.30;99.90
28010;DHT22;15334;49.494;8.410;2023-04-03T00:56:06;5.30;99.90
28010;DHT22;15334;49.494;8.410;2023-04-03T00:58:39;5.30;99.90
28010;DHT22;15334;49.494;8.410;2023-04-03T01:01:12;5.30;99.90
28010;DHT22;15334;49.494;8.410;2023-04-03T01:03:41;5.20;99.90
28010;DHT22;15334;49.494;8.410;2023-04-03T01:06:09;5.20;99.90
28010;DHT22;15334;49.494;8.410;2023-04-03T01:08:38;5.20;99.90
28010;DHT22;15334;49.494;8.410;2023-04-03T01:11:07;5.20;99.90
28010;DHT22;15334;49.494;8.410;2023-04-03T01:13:36;5.10;99.90
28010;DHT22;15334;49.494;8.410;2023-04-03T01:16:05;5.10;99.90
28010;DHT22;15334;49.494;8.410;2023-04-03T01:18:34;5.00;99.90
28010;DHT22;15334;49.494;8.410;2023-04-03T01:21:40;5.00;99.90
28010;DHT22;15334;49.494;8.410;2023-04-03T01:24:27;5.00;99.90
28010;DHT22;15334;49.494;8.410;2023-04-03T01:27:01;4.90;99.90
28010;DHT22;15334;49.494;8.410;2023-04-03T01:29:30;4.90;99.90
28010;DHT22;15334;49.494;8.410;2023-04-03T01:32:00;4.90;99.90
28010;DHT22;15334;49.494;8.410;2023-04-03T01:34:29;4.90;99.90
28010;DHT22;15334;49.494;8.410;2023-04-03T01:36:57;4.90;99.90
28010;DHT22;15334;49.494;8.410;2023-04-03T01:39:26;4.80;99.90
28010;DHT22;15334;49.494;8.410;2023-04-03T01:41:54;4.80;99.90
28010;DHT22;15334;49.494;8.410;2023-04-03T01:44:21;4.80;99.90
28010;DHT22;15334;49.494;8.410;2023-04-03T01:46:49;4.80;99.90
28010;DHT22;15334;49.494;8.410;2023-04-03T01:49:19;4.80;99.90
28010;DHT22;15334;49.494;8.410;2023-04-03T01:51:47;4.70;99.90
28010;DHT22;15334;49.494;8.410;2023-04-03T01:54:14;4.80;99.90
28010;DHT22;15334;49.494;8.410;2023-04-03T01:56:43;4.70;99.90
28010;DHT22;15334;49.494;8.410;2023-04-03T01:59:10;4.80;99.90
28010;DHT22;15334;49.494;8.410;2023-04-03T02:01:38;4.70;99.90
28010;DHT22;15334;49.494;8.410;2023-04-03T02:04:07;4.70;99.90
28010;DHT22;15334;49.494;8.410;2023-04-03T02:06:36;4.70;99.90
28010;DHT22;15334;49.494;8.410;2023-04-03T02:09:04;4.60;99.90
28010;DHT22;15334;49.494;8.410;2023-04-03T02:11:32;4.60;99.90
28010;DHT22;15334;49.494;8.410;2023-04-03T02:14:00;4.70;99.90
28010;DHT22;15334;49.494;8.410;2023-04-03T02:16:28;4.70;99.90
28010;DHT22;15334;49.494;8.410;2023-04-03T02:18:57;4.70;99.90
28010;DHT22;15334;49.494;8.410;2023-04-03T02:21:25;4.70;99.90
28010;DHT22;15334;49.494;8.410;2023-04-03T02:23:55;4.60;99.90
28010;DHT22;15334;49.494;8.410;2023-04-03T02:26:24;4.60;99.90
28010;DHT22;15334;49.494;8.410;2023-04-03T02:28:52;4.60;99.90
28010;DHT22;15334;49.494;8.410;2023-04-03T02:31:20;4.60;99.90
28010;DHT22;15334;49.494;8.410;2023-04-03T02:33:49;4.60;99.90
28010;DHT22;15334;49.494;8.410;2023-04-03T02:36:17;4.50;99.90
28010;DHT22;15334;49.494;8.410;2023-04-03T02:38:45;4.50;99.90
28010;DHT22;15334;49.494;8.410;2023-04-03T02:41:14;4.50;99.90
28010;DHT22;15334;49.494;8.410;2023-04-03T02:43:42;4.40;99.90
28010;DHT22;15334;49.494;8.410;2023-04-03T02:46:10;4.40;99.90
28010;DHT22;15334;49.494;8.410;2023-04-03T02:48:38;4.40;99.90
28010;DHT22;15334;49.494;8.410;2023-04-03T02:51:06;4.40;99.90
28010;DHT22;15334;49.494;8.410;2023-04-03T02:53:35;4.40;99.90
28010;DHT22;15334;49.494;8.410;2023-04-03T02:56:03;4.40;99.90
28010;DHT22;15334;49.494;8.410;2023-04-03T02:58:32;4.40;99.90
28010;DHT22;15334;49.494;8.410;2023-04-03T03:01:00;4.40;99.90
28010;DHT22;15334;49.494;8.410;2023-04-03T03:03:28;4.40;99.90
28010;DHT22;15334;49.494;8.410;2023-04-03T03:06:03;4.40;99.90
28010;DHT22;15334;49.494;8.410;2023-04-03T03:08:32;4.40;99.90
28010;DHT22;15334;49.494;8.410;2023-04-03T03:11:00;4.30;99.90
28010;DHT22;15334;49.494;8.410;2023-04-03T03:13:28;4.30;99.90
28010;DHT22;15334;49.494;8.410;2023-04-03T03:15:57;4.30;99.90
28010;DHT22;15334;49.494;8.410;2023-04-03T03:18:26;4.30;99.90
28010;DHT22;15334;49.494;8.410;2023-04-03T03:20:55;4.30;99.90
28010;DHT22;15334;49.494;8.410;2023-04-03T03:23:25;4.30;99.90
28010;DHT22;15334;49.494;8.410;2023-04-03T03:25:55;4.30;99.90
28010;DHT22;15334;49.494;8.410;2023-04-03T03:28:23;4.30;99.90
28010;DHT22;15334;49.494;8.410;2023-04-03T03:30:51;4.30;99.90
28010;DHT22;15334;49.494;8.410;2023-04-03T03:33:21;4.30;99.90
28010;DHT22;15334;49.494;8.410;2023-04-03T03:35:49;4.20;99.90
28010;DHT22;15334;49.494;8.410;2023-04-03T03:38:17;4.30;99.90
28010;DHT22;15334;49.494;8.410;2023-04-03T03:40:46;4.20;99.90
28010;DHT22;15334;49.494;8.410;2023-04-03T03:43:14;4.30;99.90
28010;DHT22;15334;49.494;8.410;2023-04-03T03:45:42;4.30;99.90
28010;DHT22;15334;49.494;8.410;2023-04-03T03:48:10;4.30;99.90
28010;DHT22;15334;49.494;8.410;2023-04-03T03:50:39;4.30;99.90
28010;DHT22;15334;49.494;8.410;2023-04-03T03:53:07;4.30;99.90
28010;DHT22;15334;49.494;8.410;2023-04-03T03:55:35;4.30;99.90
28010;DHT22;15334;49.494;8.410;2023-04-03T03:58:03;4.30;99.90
28010;DHT22;15334;49.494;8.410;2023-04-03T04:00:32;4.30;99.90
28010;DHT22;15334;49.494;8.410;2023-04-03T04:02:59;4.20;99.90
28010;DHT22;15334;49.494;8.410;2023-04-03T04:05:28;4.20;99.90
28010;DHT22;15334;49.494;8.410;2023-04-03T04:07:57;4.20;99.90
28010;DHT22;15334;49.494;8.410;2023-04-03T04:10:25;4.20;99.90
28010;DHT22;15334;49.494;8.410;2023-04-03T04:12:53;4.30;99.90
28010;DHT22;15334;49.494;8.410;2023-04-03T04:15:24;4.30;99.90
28010;DHT22;15334;49.494;8.410;2023-04-03T04:17:52;4.30;99.90
28010;DHT22;15334;49.494;8.410;2023-04-03T04:20:21;4.30;99.90
28010;DHT22;15334;49.494;8.410;2023-04-03T04:22:49;4.30;99.90
28010;DHT22;15334;49.494;8.410;2023-04-03T04:25:18;4.30;99.90
28010;DHT22;15334;49.494;8.410;2023-04-03T04:27:46;4.30;99.90
28010;DHT22;15334;49.494;8.410;2023-04-03T04:30:14;4.30;99.90
28010;DHT22;15334;49.494;8.410;2023-04-03T04:32:42;4.30;99.90
28010;DHT22;15334;49.494;8.410;2023-04-03T04:35:11;4.40;99.90
28010;DHT22;15334;49.494;8.410;2023-04-03T04:37:42;4.30;99.90
28010;DHT22;15334;49.494;8.410;2023-04-03T04:40:11;4.30;99.90
28010;DHT22;15334;49.494;8.410;2023-04-03T04:42:40;4.20;99.90
28010;DHT22;15334;49.494;8.410;2023-04-03T04:45:08;4.20;99.90
28010;DHT22;15334;49.494;8.410;2023-04-03T04:47:37;4.20;99.90
28010;DHT22;15334;49.494;8.410;2023-04-03T04:50:06;4.30;99.90
28010;DHT22;15334;49.494;8.410;2023-04-03T04:52:34;4.30;99.90
28010;DHT22;15334;49.494;8.410;2023-04-03T04:55:02;4.30;99.90
28010;DHT22;15334;49.494;8.410;2023-04-03T04:57:30;4.30;99.90
28010;DHT22;15334;49.494;8.410;2023-04-03T04:59:59;4.30;99.90
28010;DHT22;15334;49.494;8.410;2023-04-03T05:02:27;4.30;99.90
28010;DHT22;15334;49.494;8.410;2023-04-03T05:04:55;4.30;99.90
28010;DHT22;15334;49.494;8.410;2023-04-03T05:07:24;4.30;99.90
28010;DHT22;15334;49.494;8.410;2023-04-03T05:09:52;4.30;99.90
28010;DHT22;15334;49.494;8.410;2023-04-03T05:12:20;4.30;99.90
28010;DHT22;15334;49.494;8.410;2023-04-03T05:14:48;4.40;99.90
28010;DHT22;15334;49.494;8.410;2023-04-03T05:17:18;4.40;99.90
28010;DHT22;15334;49.494;8.410;2023-04-03T05:19:46;4.40;99.90
28010;DHT22;15334;49.494;8.410;2023-04-03T05:22:14;4.50;99.90
28010;DHT22;15334;49.494;8.410;2023-04-03T05:24:42;4.50;99.90
28010;DHT22;15334;49.494;8.410;2023-04-03T05:27:10;4.40;99.90
28010;DHT22;15334;49.494;8.410;2023-04-03T05:29:38;4.50;99.90
28010;DHT22;15334;49.494;8.410;2023-04-03T05:32:11;4.40;99.90
28010;DHT22;15334;49.494;8.410;2023-04-03T05:34:40;4.40;99.90
28010;DHT22;15334;49.494;8.410;2023-04-03T05:37:09;4.40;99.90
28010;DHT22;15334;49.494;8.410;2023-04-03T05:39:37;4.50;99.90
28010;DHT22;15334;49.494;8.410;2023-04-03T05:42:07;4.50;99.90
28010;DHT22;15334;49.494;8.410;2023-04-03T05:44:38;4.60;99.90
28010;DHT22;15334;49.494;8.410;2023-04-03T05:47:07;4.60;99.90
28010;DHT22;15334;49.494;8.410;2023-04-03T05:49:35;4.60;99.90
28010;DHT22;15334;49.494;8.410;2023-04-03T05:52:18;4.60;99.90
28010;DHT22;15334;49.494;8.410;2023-04-03T05:54:47;4.50;99.90
28010;DHT22;15334;49.494;8.410;2023-04-03T05:57:15;4.50;99.90
28010;DHT22;15334;49.494;8.410;2023-04-03T05:59:46;4.50;99.90
28010;DHT22;15334;49.494;8.410;2023-04-03T06:02:16;4.40;99.90
28010;DHT22;15334;49.494;8.410;2023-04-03T06:04:45;4.50;99.90
28010;DHT22;15334;49.494;8.410;2023-04-03T06:07:17;4.50;99.90
28010;DHT22;15334;49.494;8.410;2023-04-03T06:09:47;4.50;99.90
28010;DHT22;15334;49.494;8.410;2023-04-03T06:12:16;4.40;99.90
28010;DHT22;15334;49.494;8.410;2023-04-03T06:14:44;4.40;99.90
28010;DHT22;15334;49.494;8.410;2023-04-03T06:17:12;4.40;99.90
28010;DHT22;15334;49.494;8.410;2023-04-03T06:19:40;4.40;99.90
28010;DHT22;15334;49.494;8.410;2023-04-03T06:22:08;4.40;99.90
28010;DHT22;15334;49.494;8.410;2023-04-03T06:24:37;4.40;99.90
28010;DHT22;15334;49.494;8.410;2023-04-03T06:27:06;4.40;99.90
28010;DHT22;15334;49.494;8.410;2023-04-03T06:29:34;4.40;99.90
28010;DHT22;15334;49.494;8.410;2023-04-03T06:32:04;4.50;99.90
28010;DHT22;15334;49.494;8.410;2023-04-03T06:34:31;4.50;99.90
28010;DHT22;15334;49.494;8.410;2023-04-03T06:37:00;4.50;99.90
28010;DHT22;15334;49.494;8.410;2023-04-03T06:39:27;4.50;99.90
28010;DHT22;15334;49.494;8.410;2023-04-03T06:41:57;4.50;99.90
28010;DHT22;15334;49.494;8.410;2023-04-03T06:44:25;4.60;99.90
28010;DHT22;15334;49.494;8.410;2023-04-03T06:46:53;4.70;99.90
28010;DHT22;15334;49.494;8.410;2023-04-03T06:49:21;4.70;99.90
28010;DHT22;15334;49.494;8.410;2023-04-03T06:51:49;4.80;99.90
28010;DHT22;15334;49.494;8.410;2023-04-03T06:54:17;4.80;99.90
28010;DHT22;15334;49.494;8.410;2023-04-03T06:56:45;4.80;99.90
28010;DHT22;15334;49.494;8.410;2023-04-03T06:59:14;4.80;99.90
28010;DHT22;15334;49.494;8.410;2023-04-03T07:01:42;5.00;99.90
28010;DHT22;15334;49.494;8.410;2023-04-03T07:04:10;5.00;99.90
28010;DHT22;15334;49.494;8.410;2023-04-03T07:06:39;5.10;99.90
28010;DHT22;15334;49.494;8.410;2023-04-03T07:09:10;5.10;99.90
28010;DHT22;15334;49.494;8.410;2023-04-03T07:11:46;5.10;99.90
28010;DHT22;15334;49.494;8.410;2023-04-03T07:14:15;5.20;99.90
28010;DHT22;15334;49.494;8.410;2023-04-03T07:16:43;5.20;99.90
28010;DHT22;15334;49.494;8.410;2023-04-03T07:19:11;5.40;99.90
28010;DHT22;15334;49.494;8.410;2023-04-03T07:21:39;5.50;99.90
28010;DHT22;15334;49.494;8.410;2023-04-03T07:24:08;5.50;99.90
28010;DHT22;15334;49.494;8.410;2023-04-03T07:26:41;5.60;99.90
28010;DHT22;15334;49.494;8.410;2023-04-03T07:29:09;5.50;99.90
28010;DHT22;15334;49.494;8.410;2023-04-03T07:31:39;5.60;99.90
28010;DHT22;15334;49.494;8.410;2023-04-03T07:34:08;5.60;99.90
28010;DHT22;15334;49.494;8.410;2023-04-03T07:36:36;5.70;99.90
28010;DHT22;15334;49.494;8.410;2023-04-03T07:39:04;5.80;99.90
28010;DHT22;15334;49.494;8.410;2023-04-03T07:41:33;5.80;99.90
28010;DHT22;15334;49.494;8.410;2023-04-03T07:44:04;5.80;99.90
28010;DHT22;15334;49.494;8.410;2023-04-03T07:46:32;5.90;99.90
28010;DHT22;15334;49.494;8.410;2023-04-03T07:49:02;5.90;99.90
28010;DHT22;15334;49.494;8.410;2023-04-03T07:51:30;5.90;99.90
28010;DHT22;15334;49.494;8.410;2023-04-03T07:53:58;6.00;99.90
28010;DHT22;15334;49.494;8.410;2023-04-03T07:56:26;6.00;99.90
28010;DHT22;15334;49.494;8.410;2023-04-03T07:58:54;6.10;99.90
28010;DHT22;15334;49.494;8.410;2023-04-03T08:01:22;6.10;99.90
28010;DHT22;15334;49.494;8.410;2023-04-03T08:03:50;6.30;99.90
28010;DHT22;15334;49.494;8.410;2023-04-03T08:06:20;6.40;99.90
28010;DHT22;15334;49.494;8.410;2023-04-03T08:09:08;6.60;99.90
28010;DHT22;15334;49.494;8.410;2023-04-03T08:11:38;6.50;99.90
28010;DHT22;15334;49.494;8.410;2023-04-03T08:14:06;6.60;99.90
28010;DHT22;15334;49.494;8.410;2023-04-03T08:16:34;6.70;99.90
28010;DHT22;15334;49.494;8.410;2023-04-03T08:19:04;6.80;99.90
28010;DHT22;15334;49.494;8.410;2023-04-03T08:21:52;6.80;99.90
28010;DHT22;15334;49.494;8.410;2023-04-03T08:24:20;6.80;99.90
28010;DHT22;15334;49.494;8.410;2023-04-03T08:26:51;6.90;99.90
28010;DHT22;15334;49.494;8.410;2023-04-03T08:29:19;6.90;99.90
28010;DHT22;15334;49.494;8.410;2023-04-03T08:31:47;6.90;99.90
28010;DHT22;15334;49.494;8.410;2023-04-03T08:34:16;6.80;99.90
28010;DHT22;15334;49.494;8.410;2023-04-03T08:36:44;6.90;99.90
28010;DHT22;15334;49.494;8.410;2023-04-03T08:39:14;7.00;99.90
28010;DHT22;15334;49.494;8.410;2023-04-03T08:41:43;7.10;99.90
28010;DHT22;15334;49.494;8.410;2023-04-03T08:44:23;7.30;99.90
28010;DHT22;15334;49.494;8.410;2023-04-03T08:47:01;7.30;99.90
28010;DHT22;15334;49.494;8.410;2023-04-03T08:49:32;7.30;99.90
28010;DHT22;15334;49.494;8.410;2023-04-03T08:52:04;7.40;99.90
28010;DHT22;15334;49.494;8.410;2023-04-03T08:54:40;7.40;99.90
28010;DHT22;15334;49.494;8.410;2023-04-03T08:57:10;7.40;99.90
28010;DHT22;15334;49.494;8.410;2023-04-03T08:59:39;7.30;99.90
28010;DHT22;15334;49.494;8.410;2023-04-03T09:02:21;7.40;99.90
28010;DHT22;15334;49.494;8.410;2023-04-03T09:04:51;7.50;99.90
28010;DHT22;15334;49.494;8.410;2023-04-03T09:07:23;7.60;99.90
28010;DHT22;15334;49.494;8.410;2023-04-03T09:09:54;7.50;99.90
28010;DHT22;15334;49.494;8.410;2023-04-03T09:12:28;7.60;99.90
28010;DHT22;15334;49.494;8.410;2023-04-03T09:15:02;7.70;99.90
28010;DHT22;15334;49.494;8.410;2023-04-03T09:17:41;7.80;99.90
28010;DHT22;15334;49.494;8.410;2023-04-03T09:20:17;7.90;99.90
28010;DHT22;15334;49.494;8.410;2023-04-03T09:22:47;8.00;99.80
28010;DHT22;15334;49.494;8.410;2023-04-03T09:25:21;8.10;98.90
28010;DHT22;15334;49.494;8.410;2023-04-03T09:27:50;8.30;98.50
28010;DHT22;15334;49.494;8.410;2023-04-03T09:30:22;8.30;99.40
28010;DHT22;15334;49.494;8.410;2023-04-03T09:32:52;8.40;99.90
28010;DHT22;15334;49.494;8.410;2023-04-03T09:35:23;8.50;98.70
28010;DHT22;15334;49.494;8.410;2023-04-03T09:38:17;8.50;98.90
28010;DHT22;15334;49.494;8.410;2023-04-03T09:40:48;8.30;98.00
28010;DHT22;15334;49.494;8.410;2023-04-03T09:43:28;8.30;97.90
28010;DHT22;15334;49.494;8.410;2023-04-03T09:46:16;8.20;98.70
28010;DHT22;15334;49.494;8.410;2023-04-03T09:48:51;8.30;98.50
28010;DHT22;15334;49.494;8.410;2023-04-03T09:51:34;8.50;98.50
28010;DHT22;15334;49.494;8.410;2023-04-03T09:54:34;8.70;99.00
28010;DHT22;15334;49.494;8.410;2023-04-03T09:57:08;8.80;97.70
28010;DHT22;15334;49.494;8.410;2023-04-03T09:59:43;9.00;98.00
28010;DHT22;15334;49.494;8.410;2023-04-03T10:02:32;9.20;96.50
28010;DHT22;15334;49.494;8.410;2023-04-03T10:05:02;9.30;96.30
28010;DHT22;15334;49.494;8.410;2023-04-03T10:07:36;9.40;96.60
28010;DHT22;15334;49.494;8.410;2023-04-03T10:10:19;9.30;95.60
28010;DHT22;15334;49.494;8.410;2023-04-03T10:13:04;9.30;95.10
28010;DHT22;15334;49.494;8.410;2023-04-03T10:15:37;9.30;95.20
28010;DHT22;15334;49.494;8.410;2023-04-03T10:18:21;9.00;95.90
28010;DHT22;15334;49.494;8.410;2023-04-03T10:20:54;9.00;94.80
28010;DHT22;15334;49.494;8.410;2023-04-03T10:23:26;9.00;93.60
28010;DHT22;15334;49.494;8.410;2023-04-03T10:26:04;9.10;94.20
28010;DHT22;15334;49.494;8.410;2023-04-03T10:28:45;9.30;95.50
28010;DHT22;15334;49.494;8.410;2023-04-03T10:31:20;9.40;94.60
28010;DHT22;15334;49.494;8.410;2023-04-03T10:33:56;9.20;93.90
28010;DHT22;15334;49.494;8.410;2023-04-03T10:36:36;9.10;94.80
28010;DHT22;15334;49.494;8.410;2023-04-03T10:39:15;9.00;94.60
28010;DHT22;15334;49.494;8.410;2023-04-03T10:41:56;8.80;94.80
28010;DHT22;15334;49.494;8.410;2023-04-03T10:44:56;8.90;95.00
28010;DHT22;15334;49.494;8.410;2023-04-03T10:47:34;8.90;94.70
28010;DHT22;15334;49.494;8.410;2023-04-03T10:50:19;8.90;93.90
28010;DHT22;15334;49.494;8.410;2023-04-03T10:52:56;8.90;93.90
28010;DHT22;15334;49.494;8.410;2023-04-03T10:55:34;9.10;93.80
28010;DHT22;15334;49.494;8.410;2023-04-03T10:58:05;9.30;93.70
28010;DHT22;15334;49.494;8.410;2023-04-03T11:00:38;9.50;93.20
28010;DHT22;15334;49.494;8.410;2023-04-03T11:03:09;9.80;94.30
28010;DHT22;15334;49.494;8.410;2023-04-03T11:05:42;10.20;92.90
28010;DHT22;15334;49.494;8.410;2023-04-03T11:08:19;10.40;93.50
28010;DHT22;15334;49.494;8.410;2023-04-03T11:10:50;10.40;92.30
28010;DHT22;15334;49.494;8.410;2023-04-03T11:13:24;10.70;92.30
28010;DHT22;15334;49.494;8.410;2023-04-03T11:15:54;12.10;90.90
28010;DHT22;15334;49.494;8.410;2023-04-03T11:18:27;13.80;87.40
28010;DHT22;15334;49.494;8.410;2023-04-03T11:21:00;15.60;80.30
28010;DHT22;15334;49.494;8.410;2023-04-03T11:23:32;16.60;73.60
28010;DHT22;15334;49.494;8.410;2023-04-03T11:26:19;15.70;73.30
28010;DHT22;15334;49.494;8.410;2023-04-03T11:28:58;15.00;73.00
28010;DHT22;15334;49.494;8.410;2023-04-03T11:31:38;15.60;71.90
28010;DHT22;15334;49.494;8.410;2023-04-03T11:34:19;16.70;67.00
28010;DHT22;15334;49.494;8.410;2023-04-03T11:36:52;18.60;66.20
28010;DHT22;15334;49.494;8.410;2023-04-03T11:43:21;19.60;57.50
28010;DHT22;15334;49.494;8.410;2023-04-03T11:45:57;21.20;54.30
28010;DHT22;15334;49.494;8.410;2023-04-03T11:48:49;20.90;52.20
28010;DHT22;15334;49.494;8.410;2023-04-03T11:51:41;20.40;52.40
28010;DHT22;15334;49.494;8.410;2023-04-03T11:54:43;21.00;51.40
28010;DHT22;15334;49.494;8.410;2023-04-03T11:57:43;20.10;54.20
28010;DHT22;15334;49.494;8.410;2023-04-03T12:07:01;18.10;56.90
28010;DHT22;15334;49.494;8.410;2023-04-03T12:09:57;18.80;55.90
28010;DHT22;15334;49.494;8.410;2023-04-03T12:12:37;19.20;54.00
28010;DHT22;15334;49.494;8.410;2023-04-03T12:15:38;20.30;53.80
28010;DHT22;15334;49.494;8.410;2023-04-03T12:21:20;19.90;55.10
28010;DHT22;15334;49.494;8.410;2023-04-03T12:24:01;18.40;55.40
28010;DHT22;15334;49.494;8.410;2023-04-03T12:26:32;17.30;59.10
28010;DHT22;15334;49.494;8.410;2023-04-03T12:29:17;16.80;58.60
28010;DHT22;15334;49.494;8.410;2023-04-03T12:31:53;16.00;59.10
28010;DHT22;15334;49.494;8.410;2023-04-03T12:34:46;15.50;60.50
28010;DHT22;15334;49.494;8.410;2023-04-03T12:37:32;16.50;59.90
28010;DHT22;15334;49.494;8.410;2023-04-03T12:40:10;16.60;58.70
28010;DHT22;15334;49.494;8.410;2023-04-03T12:45:50;15.10;59.60
28010;DHT22;15334;49.494;8.410;2023-04-03T12:48:25;13.90;65.50
28010;DHT22;15334;49.494;8.410;2023-04-03T12:50:54;12.80;65.60
28010;DHT22;15334;49.494;8.410;2023-04-03T12:53:26;11.90;67.70
28010;DHT22;15334;49.494;8.410;2023-04-03T12:55:57;11.30;69.80
28010;DHT22;15334;49.494;8.410;2023-04-03T12:58:45;11.10;70.00
28010;DHT22;15334;49.494;8.410;2023-04-03T13:01:15;11.00;71.20
28010;DHT22;15334;49.494;8.410;2023-04-03T13:03:47;12.60;67.90
28010;DHT22;15334;49.494;8.410;2023-04-03T13:06:19;14.70;62.80
28010;DHT22;15334;49.494;8.410;2023-04-03T13:08:52;15.10;60.40
28010;DHT22;15334;49.494;8.410;2023-04-03T13:11:21;14.80;61.00
28010;DHT22;15334;49.494;8.410;2023-04-03T13:13:57;14.70;61.50
28010;DHT22;15334;49.494;8.410;2023-04-03T13:16:26;13.80;63.50
28010;DHT22;15334;49.494;8.410;2023-04-03T13:18:55;13.20;65.10
28010;DHT22;15334;49.494;8.410;2023-04-03T13:21:25;12.90;65.70
28010;DHT22;15334;49.494;8.410;2023-04-03T13:23:57;12.20;67.30
28010;DHT22;15334;49.494;8.410;2023-04-03T13:26:41;11.90;68.40
28010;DHT22;15334;49.494;8.410;2023-04-03T13:29:21;11.70;70.10
28010;DHT22;15334;49.494;8.410;2023-04-03T13:31:56;11.30;70.90
28010;DHT22;15334;49.494;8.410;2023-04-03T13:34:27;11.00;71.80
28010;DHT22;15334;49.494;8.410;2023-04-03T13:36:58;10.70;73.60
28010;DHT22;15334;49.494;8.410;2023-04-03T13:39:30;10.60;74.10
28010;DHT22;15334;49.494;8.410;2023-04-03T13:42:00;10.40;73.40
28010;DHT22;15334;49.494;8.410;2023-04-03T13:44:33;10.10;73.80
28010;DHT22;15334;49.494;8.410;2023-04-03T13:47:20;10.00;73.50
28010;DHT22;15334;49.494;8.410;2023-04-03T13:50:00;10.40;74.30
28010;DHT22;15334;49.494;8.410;2023-04-03T13:52:32;10.90;71.80
28010;DHT22;15334;49.494;8.410;2023-04-03T13:55:17;11.20;69.90
28010;DHT22;15334;49.494;8.410;2023-04-03T13:57:55;11.30;72.40
28010;DHT22;15334;49.494;8.410;2023-04-03T14:00:37;11.40;70.10
28010;DHT22;15334;49.494;8.410;2023-04-03T14:03:19;11.60;69.30
28010;DHT22;15334;49.494;8.410;2023-04-03T14:05:48;11.60;69.00
28010;DHT22;15334;49.494;8.410;2023-04-03T14:08:22;11.40;69.20
28010;DHT22;15334;49.494;8.410;2023-04-03T14:11:20;11.10;70.00
28010;DHT22;15334;49.494;8.410;2023-04-03T14:13:51;10.80;69.90
28010;DHT22;15334;49.494;8.410;2023-04-03T14:16:39;10.40;69.20
28010;DHT22;15334;49.494;8.410;2023-04-03T14:19:19;10.00;68.50
28010;DHT22;15334;49.494;8.410;2023-04-03T14:21:59;9.70;68.60
28010;DHT22;15334;49.494;8.410;2023-04-03T14:24:31;9.60;69.20
28010;DHT22;15334;49.494;8.410;2023-04-03T14:27:17;9.70;69.20
28010;DHT22;15334;49.494;8.410;2023-04-03T14:30:00;9.90;69.60
28010;DHT22;15334;49.494;8.410;2023-04-03T14:32:30;10.00;69.20
28010;DHT22;15334;49.494;8.410;2023-04-03T14:35:05;10.40;71.30
28010;DHT22;15334;49.494;8.410;2023-04-03T14:37:44;10.70;70.20
28010;DHT22;15334;49.494;8.410;2023-04-03T14:40:23;10.80;69.20
28010;DHT22;15334;49.494;8.410;2023-04-03T14:42:54;10.70;68.20
28010;DHT22;15334;49.494;8.410;2023-04-03T14:45:24;10.70;69.00
28010;DHT22;15334;49.494;8.410;2023-04-03T14:47:54;10.50;69.30
28010;DHT22;15334;49.494;8.410;2023-04-03T14:50:25;10.40;69.30
28010;DHT22;15334;49.494;8.410;2023-04-03T14:52:55;10.20;68.30
28010;DHT22;15334;49.494;8.410;2023-04-03T14:55:25;10.30;68.10
28010;DHT22;15334;49.494;8.410;2023-04-03T14:57:54;10.30;68.20
28010;DHT22;15334;49.494;8.410;2023-04-03T15:00:23;10.40;68.50
28010;DHT22;15334;49.494;8.410;2023-04-03T15:02:53;10.50;69.60
28010;DHT22;15334;49.494;8.410;2023-04-03T15:05:22;10.30;67.80
28010;DHT22;15334;49.494;8.410;2023-04-03T15:07:52;10.10;67.80
28010;DHT22;15334;49.494;8.410;2023-04-03T15:10:23;10.00;68.60
28010;DHT22;15334;49.494;8.410;2023-04-03T15:12:53;10.00;69.40
28010;DHT22;15334;49.494;8.410;2023-04-03T15:15:24;9.90;69.00
28010;DHT22;15334;49.494;8.410;2023-04-03T15:17:58;9.70;68.60
28010;DHT22;15334;49.494;8.410;2023-04-03T15:20:28;9.50;69.70
28010;DHT22;15334;49.494;8.410;2023-04-03T15:22:57;9.50;69.80
28010;DHT22;15334;49.494;8.410;2023-04-03T15:25:38;9.50;69.50
28010;DHT22;15334;49.494;8.410;2023-04-03T15:28:15;9.70;68.60
28010;DHT22;15334;49.494;8.410;2023-04-03T15:30:56;9.60;68.10
28010;DHT22;15334;49.494;8.410;2023-04-03T15:33:28;9.70;67.70
28010;DHT22;15334;49.494;8.410;2023-04-03T15:36:02;9.80;67.70
28010;DHT22;15334;49.494;8.410;2023-04-03T15:38:55;9.70;66.00
28010;DHT22;15334;49.494;8.410;2023-04-03T15:41:30;9.70;64.90
28010;DHT22;15334;49.494;8.410;2023-04-03T15:44:05;9.60;66.20
28010;DHT22;15334;49.494;8.410;2023-04-03T15:46:41;9.50;66.80
28010;DHT22;15334;49.494;8.410;2023-04-03T15:49:19;9.40;67.10
28010;DHT22;15334;49.494;8.410;2023-04-03T15:51:58;9.30;67.50
28010;DHT22;15334;49.494;8.410;2023-04-03T15:54:35;9.30;67.80
28010;DHT22;15334;49.494;8.410;2023-04-03T15:57:21;9.40;70.10
28010;DHT22;15334;49.494;8.410;2023-04-03T16:00:00;9.60;69.50
28010;DHT22;15334;49.494;8.410;2023-04-03T16:02:36;9.70;70.50
28010;DHT22;15334;49.494;8.410;2023-04-03T16:05:15;9.80;68.50
28010;DHT22;15334;49.494;8.410;2023-04-03T16:08:00;9.70;69.30
28010;DHT22;15334;49.494;8.410;2023-04-03T16:10:30;9.80;69.50
28010;DHT22;15334;49.494;8.410;2023-04-03T16:12:58;9.90;71.40
28010;DHT22;15334;49.494;8.410;2023-04-03T16:15:28;9.90;70.30
28010;DHT22;15334;49.494;8.410;2023-04-03T16:17:57;10.00;70.50
28010;DHT22;15334;49.494;8.410;2023-04-03T16:20:26;10.00;70.00
28010;DHT22;15334;49.494;8.410;2023-04-03T16:22:56;9.90;69.60
28010;DHT22;15334;49.494;8.410;2023-04-03T16:25:25;9.90;70.00
28010;DHT22;15334;49.494;8.410;2023-04-03T16:27:53;9.90;71.20
28010;DHT22;15334;49.494;8.410;2023-04-03T16:30:21;9.80;71.00
28010;DHT22;15334;49.494;8.410;2023-04-03T16:32:50;9.90;71.00